sensor_id;sensor_type;location;lat;lon;timestamp;P1;durP1;ratioP1;P2;durP2;ratioP2
18172;SDS011;9211;48.818;9.312;2023-02-26T00:02:15;4.83;;;2.50;;
18172;SDS011;9211;48.818;9.312;2023-02-26T00:04:42;5.38;;;2.40;;
18172;SDS011;9211;48.818;9.312;2023-02-26T00:07:09;8.00;;;2.65;;
18172;SDS011;9211;48.818;9.312;2023-02-26T00:09:36;7.35;;;2.67;;
18172;SDS011;9211;48.818;9.312;2023-02-26T00:12:04;8.18;;;2.33;;
18172;SDS011;9211;48.818;9.312;2023-02-26T00:14:32;5.88;;;2.30;;
18172;SDS011;9211;48.818;9.312;2023-02-26T00:17:07;6.00;;;2.50;;
18172;SDS011;9211;48.818;9.312;2023-02-26T00:19:42;4.75;;;2.13;;
18172;SDS011;9211;48.818;9.312;2023-02-26T00:22:09;5.72;;;2.25;;
18172;SDS011;9211;48.818;9.312;2023-02-26T00:24:36;6.72;;;2.10;;
18172;SDS011;9211;48.818;9.312;2023-02-26T00:27:04;6.32;;;2.30;;
18172;SDS011;9211;48.818;9.312;2023-02-26T00:29:32;4.72;;;2.20;;
18172;SDS011;9211;48.818;9.312;2023-02-26T00:31:59;4.40;;;2.30;;
18172;SDS011;9211;48.818;9.312;2023-02-26T00:34:27;8.48;;;2.70;;
18172;SDS011;9211;48.818;9.312;2023-02-26T00:36:58;3.78;;;2.33;;
18172;SDS011;9211;48.818;9.312;2023-02-26T00:39:36;4.82;;;2.35;;
18172;SDS011;9211;48.818;9.312;2023-02-26T00:42:11;5.70;;;2.58;;
18172;SDS011;9211;48.818;9.312;2023-02-26T00:44:39;4.80;;;2.42;;
18172;SDS011;9211;48.818;9.312;2023-02-26T00:47:08;6.95;;;2.50;;
18172;SDS011;9211;48.818;9.312;2023-02-26T00:49:46;7.85;;;3.00;;
18172;SDS011;9211;48.818;9.312;2023-02-26T00:52:23;7.60;;;2.78;;
18172;SDS011;9211;48.818;9.312;2023-02-26T00:54:54;6.72;;;2.75;;
18172;SDS011;9211;48.818;9.312;2023-02-26T00:57:22;7.38;;;2.55;;
18172;SDS011;9211;48.818;9.312;2023-02-26T00:59:49;5.03;;;2.67;;
18172;SDS011;9211;48.818;9.312;2023-02-26T01:02:18;5.75;;;2.78;;
18172;SDS011;9211;48.818;9.312;2023-02-26T01:04:45;5.13;;;2.75;;
18172;SDS011;9211;48.818;9.312;2023-02-26T01:07:13;6.03;;;2.50;;
18172;SDS011;9211;48.818;9.312;2023-02-26T01:09:40;8.23;;;2.58;;
18172;SDS011;9211;48.818;9.312;2023-02-26T01:12:08;5.78;;;2.38;;
18172;SDS011;9211;48.818;9.312;2023-02-26T01:14:41;6.00;;;2.60;;
18172;SDS011;9211;48.818;9.312;2023-02-26T01:17:10;8.13;;;2.50;;
18172;SDS011;9211;48.818;9.312;2023-02-26T01:19:44;6.00;;;2.70;;
18172;SDS011;9211;48.818;9.312;2023-02-26T01:22:19;7.53;;;2.65;;
18172;SDS011;9211;48.818;9.312;2023-02-26T01:24:50;6.40;;;2.50;;
18172;SDS011;9211;48.818;9.312;2023-02-26T01:27:25;5.88;;;2.90;;
18172;SDS011;9211;48.818;9.312;2023-02-26T01:29:54;6.07;;;2.88;;
18172;SDS011;9211;48.818;9.312;2023-02-26T01:32:22;5.50;;;2.60;;
18172;SDS011;9211;48.818;9.312;2023-02-26T01:34:53;6.35;;;2.70;;
18172;SDS011;9211;48.818;9.312;2023-02-26T01:37:27;5.93;;;2.70;;
18172;SDS011;9211;48.818;9.312;2023-02-26T01:43:05;6.37;;;2.73;;
18172;SDS011;9211;48.818;9.312;2023-02-26T01:45:38;7.20;;;2.97;;
18172;SDS011;9211;48.818;9.312;2023-02-26T01:48:18;6.25;;;2.88;;
18172;SDS011;9211;48.818;9.312;2023-02-26T01:50:56;6.80;;;2.70;;
18172;SDS011;9211;48.818;9.312;2023-02-26T01:53:24;8.13;;;2.83;;
18172;SDS011;9211;48.818;9.312;2023-02-26T01:55:54;7.45;;;2.78;;
18172;SDS011;9211;48.818;9.312;2023-02-26T01:58:23;6.53;;;2.83;;
18172;SDS011;9211;48.818;9.312;2023-02-26T02:00:55;5.78;;;2.78;;
18172;SDS011;9211;48.818;9.312;2023-02-26T02:03:22;6.82;;;2.75;;
18172;SDS011;9211;48.818;9.312;2023-02-26T02:05:54;6.20;;;2.72;;
18172;SDS011;9211;48.818;9.312;2023-02-26T02:08:23;7.28;;;3.20;;
18172;SDS011;9211;48.818;9.312;2023-02-26T02:10:50;6.03;;;2.50;;
18172;SDS011;9211;48.818;9.312;2023-02-26T02:13:23;5.38;;;2.65;;
18172;SDS011;9211;48.818;9.312;2023-02-26T02:16:02;5.60;;;2.78;;
18172;SDS011;9211;48.818;9.312;2023-02-26T02:18:41;9.23;;;2.90;;
18172;SDS011;9211;48.818;9.312;2023-02-26T02:24:16;10.30;;;3.00;;
18172;SDS011;9211;48.818;9.312;2023-02-26T02:26:57;7.97;;;3.00;;
18172;SDS011;9211;48.818;9.312;2023-02-26T02:29:37;6.93;;;2.90;;
18172;SDS011;9211;48.818;9.312;2023-02-26T02:32:28;7.65;;;2.95;;
18172;SDS011;9211;48.818;9.312;2023-02-26T02:35:02;7.70;;;3.20;;
18172;SDS011;9211;48.818;9.312;2023-02-26T02:37:37;7.00;;;3.10;;
18172;SDS011;9211;48.818;9.312;2023-02-26T02:40:09;7.13;;;3.00;;
18172;SDS011;9211;48.818;9.312;2023-02-26T02:42:41;8.55;;;3.10;;
18172;SDS011;9211;48.818;9.312;2023-02-26T02:45:14;7.93;;;2.88;;
18172;SDS011;9211;48.818;9.312;2023-02-26T02:47:49;6.22;;;2.80;;
18172;SDS011;9211;48.818;9.312;2023-02-26T02:50:23;8.32;;;3.55;;
18172;SDS011;9211;48.818;9.312;2023-02-26T02:52:55;6.75;;;2.97;;
18172;SDS011;9211;48.818;9.312;2023-02-26T02:55:27;12.43;;;3.40;;
18172;SDS011;9211;48.818;9.312;2023-02-26T02:57:57;6.10;;;2.92;;
18172;SDS011;9211;48.818;9.312;2023-02-26T03:03:12;8.60;;;3.50;;
18172;SDS011;9211;48.818;9.312;2023-02-26T03:05:45;7.78;;;3.05;;
18172;SDS011;9211;48.818;9.312;2023-02-26T03:08:13;6.82;;;3.00;;
18172;SDS011;9211;48.818;9.312;2023-02-26T03:10:44;9.60;;;2.92;;
18172;SDS011;9211;48.818;9.312;2023-02-26T03:13:13;9.45;;;2.95;;
18172;SDS011;9211;48.818;9.312;2023-02-26T03:15:45;6.15;;;2.75;;
18172;SDS011;9211;48.818;9.312;2023-02-26T03:18:22;8.35;;;3.00;;
18172;SDS011;9211;48.818;9.312;2023-02-26T03:20:59;5.93;;;2.75;;
18172;SDS011;9211;48.818;9.312;2023-02-26T03:23:33;6.30;;;2.72;;
18172;SDS011;9211;48.818;9.312;2023-02-26T03:26:07;5.55;;;2.70;;
18172;SDS011;9211;48.818;9.312;2023-02-26T03:28:40;8.07;;;2.88;;
18172;SDS011;9211;48.818;9.312;2023-02-26T03:31:14;5.45;;;2.78;;
18172;SDS011;9211;48.818;9.312;2023-02-26T03:33:48;7.25;;;3.08;;
18172;SDS011;9211;48.818;9.312;2023-02-26T03:36:21;7.50;;;3.40;;
18172;SDS011;9211;48.818;9.312;2023-02-26T03:39:18;6.38;;;2.90;;
18172;SDS011;9211;48.818;9.312;2023-02-26T03:41:51;8.90;;;2.88;;
18172;SDS011;9211;48.818;9.312;2023-02-26T03:44:23;5.40;;;2.60;;
18172;SDS011;9211;48.818;9.312;2023-02-26T03:46:55;6.78;;;2.47;;
18172;SDS011;9211;48.818;9.312;2023-02-26T03:49:29;7.07;;;2.90;;
18172;SDS011;9211;48.818;9.312;2023-02-26T03:51:59;8.60;;;2.95;;
18172;SDS011;9211;48.818;9.312;2023-02-26T03:55:07;6.70;;;2.60;;
18172;SDS011;9211;48.818;9.312;2023-02-26T03:57:54;6.77;;;2.70;;
18172;SDS011;9211;48.818;9.312;2023-02-26T04:00:41;6.40;;;2.83;;
18172;SDS011;9211;48.818;9.312;2023-02-26T04:03:13;6.93;;;2.83;;
18172;SDS011;9211;48.818;9.312;2023-02-26T04:05:47;8.30;;;2.70;;
18172;SDS011;9211;48.818;9.312;2023-02-26T04:08:19;6.43;;;2.70;;
18172;SDS011;9211;48.818;9.312;2023-02-26T04:10:50;7.15;;;2.90;;
18172;SDS011;9211;48.818;9.312;2023-02-26T04:13:20;7.00;;;2.88;;
18172;SDS011;9211;48.818;9.312;2023-02-26T04:15:48;6.93;;;2.80;;
18172;SDS011;9211;48.818;9.312;2023-02-26T04:18:15;6.72;;;2.83;;
18172;SDS011;9211;48.818;9.312;2023-02-26T04:20:42;6.22;;;2.75;;
18172;SDS011;9211;48.818;9.312;2023-02-26T04:23:10;6.97;;;2.90;;
18172;SDS011;9211;48.818;9.312;2023-02-26T04:25:38;6.97;;;2.83;;
18172;SDS011;9211;48.818;9.312;2023-02-26T04:28:05;7.35;;;2.97;;
18172;SDS011;9211;48.818;9.312;2023-02-26T04:30:32;7.40;;;3.00;;
18172;SDS011;9211;48.818;9.312;2023-02-26T04:33:01;7.53;;;2.80;;
18172;SDS011;9211;48.818;9.312;2023-02-26T04:35:28;9.32;;;3.05;;
18172;SDS011;9211;48.818;9.312;2023-02-26T04:37:56;8.35;;;2.85;;
18172;SDS011;9211;48.818;9.312;2023-02-26T04:40:24;6.93;;;2.80;;
18172;SDS011;9211;48.818;9.312;2023-02-26T04:42:52;8.85;;;3.00;;
18172;SDS011;9211;48.818;9.312;2023-02-26T04:45:22;5.70;;;2.80;;
18172;SDS011;9211;48.818;9.312;2023-02-26T04:47:49;7.17;;;3.20;;
18172;SDS011;9211;48.818;9.312;2023-02-26T04:50:16;6.07;;;2.70;;
18172;SDS011;9211;48.818;9.312;2023-02-26T04:52:46;8.43;;;2.95;;
18172;SDS011;9211;48.818;9.312;2023-02-26T04:55:13;8.45;;;2.60;;
18172;SDS011;9211;48.818;9.312;2023-02-26T04:57:42;7.07;;;2.72;;
18172;SDS011;9211;48.818;9.312;2023-02-26T05:00:10;9.93;;;2.80;;
18172;SDS011;9211;48.818;9.312;2023-02-26T05:02:38;7.75;;;3.10;;
18172;SDS011;9211;48.818;9.312;2023-02-26T05:05:06;5.95;;;2.95;;
18172;SDS011;9211;48.818;9.312;2023-02-26T05:07:33;10.40;;;3.25;;
18172;SDS011;9211;48.818;9.312;2023-02-26T05:10:00;9.90;;;2.90;;
18172;SDS011;9211;48.818;9.312;2023-02-26T05:12:27;6.18;;;2.92;;
18172;SDS011;9211;48.818;9.312;2023-02-26T05:14:55;9.77;;;3.00;;
18172;SDS011;9211;48.818;9.312;2023-02-26T05:17:22;8.48;;;2.90;;
18172;SDS011;9211;48.818;9.312;2023-02-26T05:19:49;8.48;;;2.97;;
18172;SDS011;9211;48.818;9.312;2023-02-26T05:22:17;6.70;;;2.97;;
18172;SDS011;9211;48.818;9.312;2023-02-26T05:24:45;7.53;;;3.07;;
18172;SDS011;9211;48.818;9.312;2023-02-26T05:27:12;12.00;;;3.40;;
18172;SDS011;9211;48.818;9.312;2023-02-26T05:29:43;11.38;;;3.35;;
18172;SDS011;9211;48.818;9.312;2023-02-26T05:32:13;10.80;;;3.00;;
18172;SDS011;9211;48.818;9.312;2023-02-26T05:34:40;8.38;;;3.20;;
18172;SDS011;9211;48.818;9.312;2023-02-26T05:37:07;8.20;;;3.80;;
18172;SDS011;9211;48.818;9.312;2023-02-26T05:39:34;9.55;;;3.38;;
18172;SDS011;9211;48.818;9.312;2023-02-26T05:42:01;9.95;;;3.20;;
18172;SDS011;9211;48.818;9.312;2023-02-26T05:44:28;12.93;;;3.40;;
18172;SDS011;9211;48.818;9.312;2023-02-26T05:46:55;6.43;;;2.97;;
18172;SDS011;9211;48.818;9.312;2023-02-26T05:49:23;7.93;;;3.50;;
18172;SDS011;9211;48.818;9.312;2023-02-26T05:51:50;8.77;;;2.97;;
18172;SDS011;9211;48.818;9.312;2023-02-26T05:54:17;9.45;;;3.40;;
18172;SDS011;9211;48.818;9.312;2023-02-26T05:56:44;7.28;;;2.95;;
18172;SDS011;9211;48.818;9.312;2023-02-26T05:59:11;9.00;;;4.38;;
18172;SDS011;9211;48.818;9.312;2023-02-26T06:01:38;9.05;;;3.97;;
18172;SDS011;9211;48.818;9.312;2023-02-26T06:04:06;9.93;;;3.73;;
18172;SDS011;9211;48.818;9.312;2023-02-26T06:06:35;9.27;;;3.38;;
18172;SDS011;9211;48.818;9.312;2023-02-26T06:09:02;7.88;;;3.45;;
18172;SDS011;9211;48.818;9.312;2023-02-26T06:11:30;7.95;;;3.20;;
18172;SDS011;9211;48.818;9.312;2023-02-26T06:13:57;7.10;;;3.38;;
18172;SDS011;9211;48.818;9.312;2023-02-26T06:16:24;7.82;;;3.70;;
18172;SDS011;9211;48.818;9.312;2023-02-26T06:18:51;9.07;;;3.55;;
18172;SDS011;9211;48.818;9.312;2023-02-26T06:21:18;7.57;;;3.15;;
18172;SDS011;9211;48.818;9.312;2023-02-26T06:23:46;8.02;;;2.97;;
18172;SDS011;9211;48.818;9.312;2023-02-26T06:26:13;7.90;;;3.30;;
18172;SDS011;9211;48.818;9.312;2023-02-26T06:28:40;5.65;;;3.00;;
18172;SDS011;9211;48.818;9.312;2023-02-26T06:31:07;8.00;;;3.17;;
18172;SDS011;9211;48.818;9.312;2023-02-26T06:33:34;8.77;;;3.38;;
18172;SDS011;9211;48.818;9.312;2023-02-26T06:36:01;6.23;;;3.17;;
18172;SDS011;9211;48.818;9.312;2023-02-26T06:38:28;7.95;;;3.38;;
18172;SDS011;9211;48.818;9.312;2023-02-26T06:40:57;7.72;;;3.30;;
18172;SDS011;9211;48.818;9.312;2023-02-26T06:43:24;7.25;;;3.22;;
18172;SDS011;9211;48.818;9.312;2023-02-26T06:45:51;8.20;;;3.50;;
18172;SDS011;9211;48.818;9.312;2023-02-26T06:48:18;7.68;;;3.25;;
18172;SDS011;9211;48.818;9.312;2023-02-26T06:50:45;9.02;;;3.47;;
18172;SDS011;9211;48.818;9.312;2023-02-26T06:53:12;7.57;;;3.60;;
18172;SDS011;9211;48.818;9.312;2023-02-26T06:55:41;7.65;;;3.80;;
18172;SDS011;9211;48.818;9.312;2023-02-26T06:58:11;9.32;;;3.58;;
18172;SDS011;9211;48.818;9.312;2023-02-26T07:00:38;7.90;;;3.30;;
18172;SDS011;9211;48.818;9.312;2023-02-26T07:03:05;7.10;;;3.50;;
18172;SDS011;9211;48.818;9.312;2023-02-26T07:05:32;8.40;;;3.33;;
18172;SDS011;9211;48.818;9.312;2023-02-26T07:07:59;7.13;;;3.50;;
18172;SDS011;9211;48.818;9.312;2023-02-26T07:10:26;7.63;;;3.60;;
18172;SDS011;9211;48.818;9.312;2023-02-26T07:12:53;7.50;;;3.50;;
18172;SDS011;9211;48.818;9.312;2023-02-26T07:15:21;7.15;;;3.38;;
18172;SDS011;9211;48.818;9.312;2023-02-26T07:17:48;7.45;;;3.22;;
18172;SDS011;9211;48.818;9.312;2023-02-26T07:20:15;9.27;;;3.60;;
18172;SDS011;9211;48.818;9.312;2023-02-26T07:22:43;8.80;;;3.20;;
18172;SDS011;9211;48.818;9.312;2023-02-26T07:25:10;9.10;;;3.50;;
18172;SDS011;9211;48.818;9.312;2023-02-26T07:27:38;9.27;;;3.10;;
18172;SDS011;9211;48.818;9.312;2023-02-26T07:30:05;8.45;;;2.88;;
18172;SDS011;9211;48.818;9.312;2023-02-26T07:32:35;8.80;;;2.88;;
18172;SDS011;9211;48.818;9.312;2023-02-26T07:35:02;8.05;;;2.90;;
18172;SDS011;9211;48.818;9.312;2023-02-26T07:37:29;6.63;;;2.80;;
18172;SDS011;9211;48.818;9.312;2023-02-26T07:39:56;7.55;;;2.60;;
18172;SDS011;9211;48.818;9.312;2023-02-26T07:42:23;7.18;;;3.00;;
18172;SDS011;9211;48.818;9.312;2023-02-26T07:44:51;7.35;;;2.92;;
18172;SDS011;9211;48.818;9.312;2023-02-26T07:47:18;6.25;;;3.10;;
18172;SDS011;9211;48.818;9.312;2023-02-26T07:49:46;8.43;;;3.17;;
18172;SDS011;9211;48.818;9.312;2023-02-26T07:52:13;7.72;;;3.10;;
18172;SDS011;9211;48.818;9.312;2023-02-26T07:54:40;7.47;;;3.20;;
18172;SDS011;9211;48.818;9.312;2023-02-26T07:57:07;9.88;;;3.13;;
18172;SDS011;9211;48.818;9.312;2023-02-26T07:59:35;7.78;;;3.00;;
18172;SDS011;9211;48.818;9.312;2023-02-26T08:02:01;8.50;;;3.03;;
18172;SDS011;9211;48.818;9.312;2023-02-26T08:04:28;7.78;;;2.95;;
18172;SDS011;9211;48.818;9.312;2023-02-26T08:06:58;6.55;;;2.40;;
18172;SDS011;9211;48.818;9.312;2023-02-26T08:09:25;7.65;;;2.90;;
18172;SDS011;9211;48.818;9.312;2023-02-26T08:11:52;6.60;;;2.90;;
18172;SDS011;9211;48.818;9.312;2023-02-26T08:14:19;6.78;;;2.70;;
18172;SDS011;9211;48.818;9.312;2023-02-26T08:16:46;7.40;;;2.70;;
18172;SDS011;9211;48.818;9.312;2023-02-26T08:19:13;10.23;;;3.38;;
18172;SDS011;9211;48.818;9.312;2023-02-26T08:21:40;8.02;;;2.97;;
18172;SDS011;9211;48.818;9.312;2023-02-26T08:24:10;6.25;;;2.40;;
18172;SDS011;9211;48.818;9.312;2023-02-26T08:26:37;7.95;;;2.83;;
18172;SDS011;9211;48.818;9.312;2023-02-26T08:29:04;5.70;;;2.60;;
18172;SDS011;9211;48.818;9.312;2023-02-26T08:31:32;7.90;;;2.30;;
18172;SDS011;9211;48.818;9.312;2023-02-26T08:34:00;5.83;;;2.27;;
18172;SDS011;9211;48.818;9.312;2023-02-26T08:36:27;7.63;;;2.50;;
18172;SDS011;9211;48.818;9.312;2023-02-26T08:38:54;7.32;;;2.00;;
18172;SDS011;9211;48.818;9.312;2023-02-26T08:41:22;5.45;;;2.15;;
18172;SDS011;9211;48.818;9.312;2023-02-26T08:43:51;6.55;;;2.47;;
18172;SDS011;9211;48.818;9.312;2023-02-26T08:46:18;7.60;;;2.33;;
18172;SDS011;9211;48.818;9.312;2023-02-26T08:48:45;5.70;;;2.15;;
18172;SDS011;9211;48.818;9.312;2023-02-26T08:51:12;8.48;;;2.10;;
18172;SDS011;9211;48.818;9.312;2023-02-26T08:53:39;6.83;;;2.00;;
18172;SDS011;9211;48.818;9.312;2023-02-26T08:56:09;4.67;;;1.90;;
18172;SDS011;9211;48.818;9.312;2023-02-26T08:58:37;6.28;;;2.10;;
18172;SDS011;9211;48.818;9.312;2023-02-26T09:01:04;7.15;;;2.40;;
18172;SDS011;9211;48.818;9.312;2023-02-26T09:03:31;4.43;;;1.80;;
18172;SDS011;9211;48.818;9.312;2023-02-26T09:05:58;5.10;;;2.28;;
18172;SDS011;9211;48.818;9.312;2023-02-26T09:08:25;4.20;;;1.85;;
18172;SDS011;9211;48.818;9.312;2023-02-26T09:10:52;6.22;;;2.10;;
18172;SDS011;9211;48.818;9.312;2023-02-26T09:13:19;4.07;;;1.77;;
18172;SDS011;9211;48.818;9.312;2023-02-26T09:15:48;5.10;;;1.83;;
18172;SDS011;9211;48.818;9.312;2023-02-26T09:18:15;6.03;;;2.00;;
18172;SDS011;9211;48.818;9.312;2023-02-26T09:20:43;3.03;;;1.63;;
18172;SDS011;9211;48.818;9.312;2023-02-26T09:23:10;5.43;;;1.80;;
18172;SDS011;9211;48.818;9.312;2023-02-26T09:25:37;4.40;;;1.63;;
18172;SDS011;9211;48.818;9.312;2023-02-26T09:28:04;3.40;;;1.70;;
18172;SDS011;9211;48.818;9.312;2023-02-26T09:30:31;4.60;;;1.67;;
18172;SDS011;9211;48.818;9.312;2023-02-26T09:33:00;3.65;;;1.55;;
18172;SDS011;9211;48.818;9.312;2023-02-26T09:35:27;4.68;;;1.65;;
18172;SDS011;9211;48.818;9.312;2023-02-26T09:37:53;4.50;;;1.40;;
18172;SDS011;9211;48.818;9.312;2023-02-26T09:40:23;2.53;;;1.30;;
18172;SDS011;9211;48.818;9.312;2023-02-26T09:43:18;2.53;;;1.30;;
18172;SDS011;9211;48.818;9.312;2023-02-26T09:46:09;2.88;;;1.33;;
18172;SDS011;9211;48.818;9.312;2023-02-26T09:48:45;4.80;;;1.23;;
18172;SDS011;9211;48.818;9.312;2023-02-26T09:51:18;4.83;;;1.30;;
18172;SDS011;9211;48.818;9.312;2023-02-26T09:53:47;3.05;;;1.30;;
18172;SDS011;9211;48.818;9.312;2023-02-26T09:56:17;4.50;;;1.50;;
18172;SDS011;9211;48.818;9.312;2023-02-26T09:58:46;2.78;;;1.30;;
18172;SDS011;9211;48.818;9.312;2023-02-26T10:01:15;3.55;;;1.40;;
18172;SDS011;9211;48.818;9.312;2023-02-26T10:03:53;4.78;;;1.50;;
18172;SDS011;9211;48.818;9.312;2023-02-26T10:06:29;4.25;;;1.50;;
18172;SDS011;9211;48.818;9.312;2023-02-26T10:09:07;4.45;;;1.77;;
18172;SDS011;9211;48.818;9.312;2023-02-26T10:11:45;3.22;;;1.40;;
18172;SDS011;9211;48.818;9.312;2023-02-26T10:14:15;4.68;;;1.63;;
18172;SDS011;9211;48.818;9.312;2023-02-26T10:16:49;5.60;;;2.13;;
18172;SDS011;9211;48.818;9.312;2023-02-26T10:19:20;4.32;;;1.50;;
18172;SDS011;9211;48.818;9.312;2023-02-26T10:21:53;5.18;;;1.77;;
18172;SDS011;9211;48.818;9.312;2023-02-26T10:24:23;5.53;;;1.77;;
18172;SDS011;9211;48.818;9.312;2023-02-26T10:26:56;3.43;;;1.50;;
18172;SDS011;9211;48.818;9.312;2023-02-26T10:29:30;3.97;;;1.75;;
18172;SDS011;9211;48.818;9.312;2023-02-26T10:32:04;3.80;;;1.50;;
18172;SDS011;9211;48.818;9.312;2023-02-26T10:34:45;4.13;;;1.60;;
18172;SDS011;9211;48.818;9.312;2023-02-26T10:37:17;2.78;;;1.60;;
18172;SDS011;9211;48.818;9.312;2023-02-26T10:39:47;4.28;;;2.00;;
18172;SDS011;9211;48.818;9.312;2023-02-26T10:42:17;4.38;;;1.70;;
18172;SDS011;9211;48.818;9.312;2023-02-26T10:44:50;7.27;;;2.10;;
18172;SDS011;9211;48.818;9.312;2023-02-26T10:47:30;5.70;;;2.00;;
18172;SDS011;9211;48.818;9.312;2023-02-26T10:50:04;4.10;;;1.90;;
18172;SDS011;9211;48.818;9.312;2023-02-26T10:52:35;2.30;;;1.43;;
18172;SDS011;9211;48.818;9.312;2023-02-26T10:55:25;4.35;;;1.63;;
18172;SDS011;9211;48.818;9.312;2023-02-26T10:57:59;2.80;;;1.67;;
18172;SDS011;9211;48.818;9.312;2023-02-26T11:00:31;2.83;;;1.50;;
18172;SDS011;9211;48.818;9.312;2023-02-26T11:03:00;2.58;;;1.40;;
18172;SDS011;9211;48.818;9.312;2023-02-26T11:05:32;4.07;;;1.52;;
18172;SDS011;9211;48.818;9.312;2023-02-26T11:08:01;3.72;;;1.70;;
18172;SDS011;9211;48.818;9.312;2023-02-26T11:10:38;2.85;;;1.60;;
18172;SDS011;9211;48.818;9.312;2023-02-26T11:13:07;3.83;;;1.80;;
18172;SDS011;9211;48.818;9.312;2023-02-26T11:15:35;8.03;;;2.70;;
18172;SDS011;9211;48.818;9.312;2023-02-26T11:18:02;11.38;;;3.03;;
18172;SDS011;9211;48.818;9.312;2023-02-26T11:20:32;5.00;;;2.22;;
18172;SDS011;9211;48.818;9.312;2023-02-26T11:23:03;4.75;;;2.00;;
18172;SDS011;9211;48.818;9.312;2023-02-26T11:25:32;3.78;;;1.70;;
18172;SDS011;9211;48.818;9.312;2023-02-26T11:28:02;2.83;;;1.42;;
18172;SDS011;9211;48.818;9.312;2023-02-26T11:30:34;2.63;;;1.50;;
18172;SDS011;9211;48.818;9.312;2023-02-26T11:33:04;3.35;;;1.60;;
18172;SDS011;9211;48.818;9.312;2023-02-26T11:35:42;2.63;;;1.40;;
18172;SDS011;9211;48.818;9.312;2023-02-26T11:38:13;2.85;;;1.30;;
18172;SDS011;9211;48.818;9.312;2023-02-26T11:40:46;2.28;;;1.30;;
18172;SDS011;9211;48.818;9.312;2023-02-26T11:43:15;2.90;;;1.60;;
18172;SDS011;9211;48.818;9.312;2023-02-26T11:45:46;2.90;;;1.40;;
18172;SDS011;9211;48.818;9.312;2023-02-26T11:48:15;2.03;;;1.30;;
18172;SDS011;9211;48.818;9.312;2023-02-26T11:50:50;3.20;;;1.42;;
18172;SDS011;9211;48.818;9.312;2023-02-26T11:53:23;2.53;;;1.27;;
18172;SDS011;9211;48.818;9.312;2023-02-26T11:55:58;3.92;;;1.40;;
18172;SDS011;9211;48.818;9.312;2023-02-26T11:58:27;2.47;;;1.30;;
18172;SDS011;9211;48.818;9.312;2023-02-26T12:00:57;4.10;;;1.40;;
18172;SDS011;9211;48.818;9.312;2023-02-26T12:03:26;2.35;;;1.45;;
18172;SDS011;9211;48.818;9.312;2023-02-26T12:05:56;1.73;;;1.25;;
18172;SDS011;9211;48.818;9.312;2023-02-26T12:08:24;2.58;;;1.35;;
18172;SDS011;9211;48.818;9.312;2023-02-26T12:10:59;3.53;;;1.40;;
18172;SDS011;9211;48.818;9.312;2023-02-26T12:13:34;1.88;;;1.20;;
18172;SDS011;9211;48.818;9.312;2023-02-26T12:16:08;1.95;;;1.20;;
18172;SDS011;9211;48.818;9.312;2023-02-26T12:18:50;1.98;;;1.20;;
18172;SDS011;9211;48.818;9.312;2023-02-26T12:21:46;2.35;;;1.25;;
18172;SDS011;9211;48.818;9.312;2023-02-26T12:24:46;1.50;;;1.10;;
18172;SDS011;9211;48.818;9.312;2023-02-26T12:27:36;2.30;;;1.50;;
18172;SDS011;9211;48.818;9.312;2023-02-26T12:30:30;2.00;;;1.20;;
18172;SDS011;9211;48.818;9.312;2023-02-26T12:33:16;2.40;;;1.30;;
18172;SDS011;9211;48.818;9.312;2023-02-26T12:35:56;2.35;;;1.33;;
18172;SDS011;9211;48.818;9.312;2023-02-26T12:38:34;2.08;;;1.40;;
18172;SDS011;9211;48.818;9.312;2023-02-26T12:41:14;2.25;;;1.30;;
18172;SDS011;9211;48.818;9.312;2023-02-26T12:43:50;2.13;;;1.20;;
18172;SDS011;9211;48.818;9.312;2023-02-26T12:46:34;2.30;;;1.25;;
18172;SDS011;9211;48.818;9.312;2023-02-26T12:55:19;1.90;;;1.20;;
18172;SDS011;9211;48.818;9.312;2023-02-26T13:00:54;1.55;;;1.08;;
18172;SDS011;9211;48.818;9.312;2023-02-26T13:03:35;1.63;;;1.13;;
18172;SDS011;9211;48.818;9.312;2023-02-26T13:06:19;1.33;;;1.10;;
18172;SDS011;9211;48.818;9.312;2023-02-26T13:09:05;1.63;;;1.10;;
18172;SDS011;9211;48.818;9.312;2023-02-26T13:11:49;3.10;;;1.10;;
18172;SDS011;9211;48.818;9.312;2023-02-26T13:14:28;1.88;;;1.10;;
18172;SDS011;9211;48.818;9.312;2023-02-26T13:17:07;1.65;;;1.10;;
18172;SDS011;9211;48.818;9.312;2023-02-26T13:19:41;2.38;;;1.30;;
18172;SDS011;9211;48.818;9.312;2023-02-26T13:22:14;2.40;;;1.02;;
18172;SDS011;9211;48.818;9.312;2023-02-26T13:24:46;2.72;;;1.05;;
18172;SDS011;9211;48.818;9.312;2023-02-26T13:27:20;2.45;;;1.10;;
18172;SDS011;9211;48.818;9.312;2023-02-26T13:29:52;3.47;;;1.80;;
18172;SDS011;9211;48.818;9.312;2023-02-26T13:32:30;1.77;;;1.10;;
18172;SDS011;9211;48.818;9.312;2023-02-26T13:35:00;3.08;;;1.10;;
18172;SDS011;9211;48.818;9.312;2023-02-26T13:37:30;1.98;;;1.02;;
18172;SDS011;9211;48.818;9.312;2023-02-26T13:40:22;1.67;;;1.00;;
18172;SDS011;9211;48.818;9.312;2023-02-26T13:43:08;2.20;;;1.15;;
18172;SDS011;9211;48.818;9.312;2023-02-26T13:45:45;1.60;;;1.10;;
18172;SDS011;9211;48.818;9.312;2023-02-26T13:48:19;2.00;;;1.23;;
18172;SDS011;9211;48.818;9.312;2023-02-26T13:50:56;2.03;;;1.10;;
18172;SDS011;9211;48.818;9.312;2023-02-26T13:56:22;1.60;;;1.10;;
18172;SDS011;9211;48.818;9.312;2023-02-26T13:59:25;2.60;;;1.70;;
18172;SDS011;9211;48.818;9.312;2023-02-26T14:02:00;1.60;;;1.00;;
18172;SDS011;9211;48.818;9.312;2023-02-26T14:04:29;2.30;;;1.00;;
18172;SDS011;9211;48.818;9.312;2023-02-26T14:06:58;2.33;;;0.95;;
18172;SDS011;9211;48.818;9.312;2023-02-26T14:09:29;1.92;;;1.00;;
18172;SDS011;9211;48.818;9.312;2023-02-26T14:12:22;3.13;;;1.00;;
18172;SDS011;9211;48.818;9.312;2023-02-26T14:18:02;1.95;;;1.00;;
18172;SDS011;9211;48.818;9.312;2023-02-26T14:20:31;2.10;;;1.10;;
18172;SDS011;9211;48.818;9.312;2023-02-26T14:23:10;1.58;;;1.00;;
18172;SDS011;9211;48.818;9.312;2023-02-26T14:26:01;1.60;;;1.00;;
18172;SDS011;9211;48.818;9.312;2023-02-26T14:28:32;1.37;;;0.87;;
18172;SDS011;9211;48.818;9.312;2023-02-26T14:31:14;1.60;;;0.90;;
18172;SDS011;9211;48.818;9.312;2023-02-26T14:33:46;1.65;;;0.90;;
18172;SDS011;9211;48.818;9.312;2023-02-26T14:36:26;1.30;;;0.88;;
18172;SDS011;9211;48.818;9.312;2023-02-26T14:39:00;3.40;;;1.70;;
18172;SDS011;9211;48.818;9.312;2023-02-26T14:41:31;2.63;;;1.45;;
18172;SDS011;9211;48.818;9.312;2023-02-26T14:44:01;1.70;;;1.10;;
18172;SDS011;9211;48.818;9.312;2023-02-26T14:46:32;2.90;;;1.00;;
18172;SDS011;9211;48.818;9.312;2023-02-26T14:49:02;1.70;;;0.87;;
18172;SDS011;9211;48.818;9.312;2023-02-26T14:51:36;3.92;;;0.80;;
18172;SDS011;9211;48.818;9.312;2023-02-26T14:54:19;2.85;;;0.90;;
18172;SDS011;9211;48.818;9.312;2023-02-26T14:56:58;1.20;;;0.88;;
18172;SDS011;9211;48.818;9.312;2023-02-26T14:59:42;1.42;;;0.88;;
18172;SDS011;9211;48.818;9.312;2023-02-26T15:02:20;2.63;;;0.88;;
18172;SDS011;9211;48.818;9.312;2023-02-26T15:05:00;1.42;;;0.80;;
18172;SDS011;9211;48.818;9.312;2023-02-26T15:07:41;1.30;;;0.80;;
18172;SDS011;9211;48.818;9.312;2023-02-26T15:10:21;2.37;;;0.90;;
18172;SDS011;9211;48.818;9.312;2023-02-26T15:13:02;2.17;;;0.90;;
18172;SDS011;9211;48.818;9.312;2023-02-26T15:15:44;2.03;;;1.40;;
18172;SDS011;9211;48.818;9.312;2023-02-26T15:18:22;1.58;;;1.00;;
18172;SDS011;9211;48.818;9.312;2023-02-26T15:21:15;1.45;;;0.82;;
18172;SDS011;9211;48.818;9.312;2023-02-26T15:23:48;2.27;;;1.17;;
18172;SDS011;9211;48.818;9.312;2023-02-26T15:26:18;2.70;;;1.00;;
18172;SDS011;9211;48.818;9.312;2023-02-26T15:28:48;2.90;;;1.20;;
18172;SDS011;9211;48.818;9.312;2023-02-26T15:31:17;1.70;;;0.80;;
18172;SDS011;9211;48.818;9.312;2023-02-26T15:33:46;1.77;;;0.83;;
18172;SDS011;9211;48.818;9.312;2023-02-26T15:36:17;2.13;;;1.00;;
18172;SDS011;9211;48.818;9.312;2023-02-26T15:38:52;1.52;;;0.90;;
18172;SDS011;9211;48.818;9.312;2023-02-26T15:41:21;1.55;;;0.98;;
18172;SDS011;9211;48.818;9.312;2023-02-26T15:43:51;1.27;;;0.80;;
18172;SDS011;9211;48.818;9.312;2023-02-26T15:46:22;2.20;;;1.00;;
18172;SDS011;9211;48.818;9.312;2023-02-26T15:48:54;1.60;;;0.90;;
18172;SDS011;9211;48.818;9.312;2023-02-26T15:51:25;2.58;;;0.98;;
18172;SDS011;9211;48.818;9.312;2023-02-26T15:53:53;1.80;;;0.90;;